Santa Ana, CA (92705)

2:40 AM PDT on August 23, 2014 (GMT -0700)
North Tustin | Change Station
CLOSE
Current Station
Personal Weather Station
Location: Santa Ana, CA
Elevation: 135 ft
Nearby Weather Stations
Active Advisory: High Surf Advisory

Elev 135 ft 33.74 °N, 117.80 °W | Updated 15 seconds ago

Overcast
Overcast
68.0 °F
Feels Like 68.0 °F
N
0.0
Wind Variable Wind from East
Gusts 0.0 mph

Today
High -- | Low -- °F
--% Chance of Precip.
Yesterday
High -- | Low -- °F
Precip. -- in
6:18 AM 7:28 PM
Waning Crescent, 4% visible
Pressure 29.94 in
Visibility 10.0 miles
Clouds Overcast 1500 ft
Dew Point 64 °F
Humidity 87%
Rainfall 0.00 in
Snow Depth Not available.
UV 0 out of 12
Pollen 5.40 out of 12
Ozone Good
Flu Activity Not available.
SPECI KSNA 230830Z AUTO 27003KT 10SM OVC015 21/16 A2994 RMK AO2 TSNO

More Conditions Fewer Conditions

Pressure 29.94 in
Visibility 10.0 miles
Clouds Overcast 1500 ft
Dew Point 64 °F
Humidity 87%
Rainfall 0.00 in
Snow Depth Not available.
UV 0 out of 12
Pollen 5.40 out of 12
Ozone Good
Flu Activity Not available.
SPECI KSNA 230830Z AUTO 27003KT 10SM OVC015 21/16 A2994 RMK AO2 TSNO

More Conditions Fewer Conditions

10-Day Weather Forecast

Almanac

Astronomy

Aug. 23, 2014 Rise Set
Actual Time 6:18 AM PDT 7:28 PM PDT
Civil Twilight 5:53 AM PDT 7:53 PM PDT
Nautical Twilight 5:22 AM PDT 8:24 PM PDT
Astronomical Twilight 4:50 AM PDT 8:56 PM PDT
Moon 4:41 AM PDT 6:15 PM PDT
Length of Visible Light 14h 00m
Length of Day
13h 09m
Tomorrow will be 1m 56s shorter.
Waning Crescent, 4% of the Moon is Illuminated
Today
Waning Crescent
Aug 25
New
Sep 2
First Quarter
Sep 8
Full
Sep 15
Last Quarter

Today's Extremes

State Highs State Lows

Community

WunderPhotos

Upload Photos

1,746,396 photos uploaded!

WunderBlogs® & News

By Dr. Jeff Masters
Director of Meteorology, Weather Underground
By Kari Strenfel
Meteorologist, Weather Underground
By Christopher C. Burt
Weather Historian, Weather Underground
August 23, 2014
August 23, 2014
August 22, 2014

Nearby

Air Quality

  Air Quality AQ Index Pollutant
Yesterday Good
OZONE
Current Good
OZONE
Sunday Good
PM10
Sunday Good
OZONE
Sunday Good
CO
Sunday Good
NO2

Snow Depth

Station Depth Elevation
Leavitt Lake 0 in 9400 ft
Leavitt Meadows 1 in 7200 ft
Sonora Pass 0 in 8800 ft
Summit Meadow 1 in 9122 ft
Ebbetts Pass 0 in 8700 ft

Earthquake Activity

City Distance Mag. Time & Date
West Hills, California 59 miles 2.5 4:21 AM PDT
2014-08-18
Big Bear City, California 69 miles 3.7 9:55 PM PDT
2014-08-17
Minimum magnitude displayed is 2.5.

Coastal Water Temperatures

Place Temperature
Santa Monica Pier 71.1 °F
Los Angeles, CA 68.0 °F
La Jolla, CA 72.0 °F

Nearby Weather Stations